sensor_id;sensor_type;location;lat;lon;timestamp;pressure;altitude;pressure_sealevel;temperature;humidity
16664;BME280;8445;51.270;9.434;2023-03-23T00:01:34;98458.06;;;12.75;53.68
16664;BME280;8445;51.270;9.434;2023-03-23T00:04:10;98463.06;;;12.78;53.90
16664;BME280;8445;51.270;9.434;2023-03-23T00:10:38;98456.09;;;12.77;53.72
16664;BME280;8445;51.270;9.434;2023-03-23T00:13:56;98447.28;;;12.77;54.04
16664;BME280;8445;51.270;9.434;2023-03-23T00:16:42;98454.41;;;12.76;53.78
16664;BME280;8445;51.270;9.434;2023-03-23T00:19:33;98459.13;;;12.82;53.64
16664;BME280;8445;51.270;9.434;2023-03-23T00:22:27;98457.16;;;12.84;54.02
16664;BME280;8445;51.270;9.434;2023-03-23T00:25:37;98459.94;;;12.83;54.25
16664;BME280;8445;51.270;9.434;2023-03-23T00:35:32;98466.47;;;12.88;53.87
16664;BME280;8445;51.270;9.434;2023-03-23T00:38:21;98466.91;;;12.84;54.61
16664;BME280;8445;51.270;9.434;2023-03-23T00:41:19;98473.06;;;12.84;54.55
16664;BME280;8445;51.270;9.434;2023-03-23T00:44:39;98473.69;;;12.78;56.41
16664;BME280;8445;51.270;9.434;2023-03-23T00:50:32;98451.50;;;12.61;54.68
16664;BME280;8445;51.270;9.434;2023-03-23T00:53:30;98457.91;;;12.58;56.92
16664;BME280;8445;51.270;9.434;2023-03-23T01:00:05;98449.75;;;12.34;55.13
16664;BME280;8445;51.270;9.434;2023-03-23T01:03:35;98449.75;;;12.34;55.73
16664;BME280;8445;51.270;9.434;2023-03-23T01:09:46;98437.00;;;12.19;56.89
16664;BME280;8445;51.270;9.434;2023-03-23T01:12:43;98436.47;;;12.15;57.55
16664;BME280;8445;51.270;9.434;2023-03-23T01:15:25;98430.09;;;12.08;55.53
16664;BME280;8445;51.270;9.434;2023-03-23T01:19:02;98428.81;;;12.12;55.78
16664;BME280;8445;51.270;9.434;2023-03-23T01:21:30;98427.75;;;12.05;55.04
16664;BME280;8445;51.270;9.434;2023-03-23T01:24:08;98430.53;;;12.04;55.87
16664;BME280;8445;51.270;9.434;2023-03-23T01:26:40;98429.25;;;12.08;55.01
16664;BME280;8445;51.270;9.434;2023-03-23T01:29:06;98426.91;;;12.05;55.45
16664;BME280;8445;51.270;9.434;2023-03-23T01:31:37;98427.59;;;12.07;55.27
16664;BME280;8445;51.270;9.434;2023-03-23T01:34:11;98435.38;;;12.08;55.53
16664;BME280;8445;51.270;9.434;2023-03-23T01:36:44;98428.66;;;12.14;55.31
16664;BME280;8445;51.270;9.434;2023-03-23T01:39:24;98421.09;;;12.19;56.32
16664;BME280;8445;51.270;9.434;2023-03-23T01:41:54;98405.72;;;12.23;55.53
16664;BME280;8445;51.270;9.434;2023-03-23T01:46:56;98408.22;;;12.24;55.75
16664;BME280;8445;51.270;9.434;2023-03-23T01:49:33;98405.56;;;12.24;57.90
16664;BME280;8445;51.270;9.434;2023-03-23T01:52:05;98407.53;;;12.22;55.91
16664;BME280;8445;51.270;9.434;2023-03-23T01:54:32;98411.63;;;12.16;56.00
16664;BME280;8445;51.270;9.434;2023-03-23T01:57:09;98401.84;;;12.17;55.99
16664;BME280;8445;51.270;9.434;2023-03-23T01:59:39;98405.50;;;12.16;55.89
16664;BME280;8445;51.270;9.434;2023-03-23T02:02:23;98409.44;;;12.12;57.21
16664;BME280;8445;51.270;9.434;2023-03-23T02:04:49;98416.09;;;12.16;55.86
16664;BME280;8445;51.270;9.434;2023-03-23T02:07:17;98416.41;;;12.13;56.29
16664;BME280;8445;51.270;9.434;2023-03-23T02:09:57;98406.59;;;12.13;56.24
16664;BME280;8445;51.270;9.434;2023-03-23T02:12:25;98401.31;;;12.13;55.85
16664;BME280;8445;51.270;9.434;2023-03-23T02:14:54;98422.00;;;12.10;56.42
16664;BME280;8445;51.270;9.434;2023-03-23T02:17:36;98420.41;;;12.17;56.94
16664;BME280;8445;51.270;9.434;2023-03-23T02:23:13;98409.44;;;12.12;56.93
16664;BME280;8445;51.270;9.434;2023-03-23T02:28:52;98420.16;;;12.10;57.32
16664;BME280;8445;51.270;9.434;2023-03-23T02:34:18;98417.00;;;12.07;57.22
16664;BME280;8445;51.270;9.434;2023-03-23T02:36:53;98411.69;;;12.07;58.02
16664;BME280;8445;51.270;9.434;2023-03-23T02:39:24;98411.69;;;12.07;57.52
16664;BME280;8445;51.270;9.434;2023-03-23T02:41:57;98427.44;;;12.08;60.06
16664;BME280;8445;51.270;9.434;2023-03-23T02:44:26;98418.66;;;12.08;57.38
16664;BME280;8445;51.270;9.434;2023-03-23T02:46:59;98428.41;;;12.07;57.60
16664;BME280;8445;51.270;9.434;2023-03-23T02:49:31;98426.31;;;12.11;57.68
16664;BME280;8445;51.270;9.434;2023-03-23T02:51:59;98423.97;;;12.08;57.86
16664;BME280;8445;51.270;9.434;2023-03-23T02:54:26;98419.25;;;12.01;57.79
16664;BME280;8445;51.270;9.434;2023-03-23T02:56:57;98417.84;;;11.97;57.83
16664;BME280;8445;51.270;9.434;2023-03-23T02:59:28;98420.97;;;11.93;57.73
16664;BME280;8445;51.270;9.434;2023-03-23T03:02:09;98410.78;;;11.88;59.08
16664;BME280;8445;51.270;9.434;2023-03-23T03:04:40;98415.72;;;11.83;58.10
16664;BME280;8445;51.270;9.434;2023-03-23T03:07:30;98421.84;;;11.83;60.42
16664;BME280;8445;51.270;9.434;2023-03-23T03:10:15;98417.97;;;11.78;58.15
16664;BME280;8445;51.270;9.434;2023-03-23T03:12:51;98407.97;;;11.71;58.15
16664;BME280;8445;51.270;9.434;2023-03-23T03:19:06;98409.84;;;11.61;60.05
16664;BME280;8445;51.270;9.434;2023-03-23T03:21:37;98410.56;;;11.53;58.72
16664;BME280;8445;51.270;9.434;2023-03-23T03:24:05;98419.13;;;11.47;58.82
16664;BME280;8445;51.270;9.434;2023-03-23T03:26:38;98416.50;;;11.37;59.38
16664;BME280;8445;51.270;9.434;2023-03-23T03:29:21;98411.78;;;11.31;59.37
16664;BME280;8445;51.270;9.434;2023-03-23T03:31:50;98422.13;;;11.24;60.29
16664;BME280;8445;51.270;9.434;2023-03-23T03:34:17;98421.56;;;11.21;59.92
16664;BME280;8445;51.270;9.434;2023-03-23T03:36:48;98418.22;;;11.19;59.29
16664;BME280;8445;51.270;9.434;2023-03-23T03:39:16;98416.88;;;11.15;59.95
16664;BME280;8445;51.270;9.434;2023-03-23T03:41:44;98423.56;;;11.09;60.18
16664;BME280;8445;51.270;9.434;2023-03-23T03:44:15;98428.59;;;11.02;60.73
16664;BME280;8445;51.270;9.434;2023-03-23T03:46:43;98418.31;;;10.99;60.48
16664;BME280;8445;51.270;9.434;2023-03-23T03:49:12;98427.22;;;10.98;59.96
16664;BME280;8445;51.270;9.434;2023-03-23T03:51:42;98424.84;;;10.95;60.59
16664;BME280;8445;51.270;9.434;2023-03-23T03:54:17;98418.03;;;10.92;60.92
16664;BME280;8445;51.270;9.434;2023-03-23T03:56:46;98428.59;;;10.92;60.75
16664;BME280;8445;51.270;9.434;2023-03-23T03:59:32;98434.06;;;10.91;61.25
16664;BME280;8445;51.270;9.434;2023-03-23T04:02:36;98438.50;;;10.90;61.64
16664;BME280;8445;51.270;9.434;2023-03-23T04:05:01;98438.66;;;10.89;61.10
16664;BME280;8445;51.270;9.434;2023-03-23T04:07:31;98448.25;;;10.90;61.04
16664;BME280;8445;51.270;9.434;2023-03-23T04:09:57;98443.94;;;10.89;61.16
16664;BME280;8445;51.270;9.434;2023-03-23T04:12:38;98451.19;;;10.87;63.22
16664;BME280;8445;51.270;9.434;2023-03-23T04:15:36;98450.34;;;10.76;62.48
16664;BME280;8445;51.270;9.434;2023-03-23T04:18:07;98456.50;;;10.77;61.96
16664;BME280;8445;51.270;9.434;2023-03-23T04:20:34;98457.59;;;10.74;61.49
16664;BME280;8445;51.270;9.434;2023-03-23T04:23:02;98454.25;;;10.72;62.30
16664;BME280;8445;51.270;9.434;2023-03-23T04:25:29;98457.88;;;10.71;61.88
16664;BME280;8445;51.270;9.434;2023-03-23T04:28:03;98458.16;;;10.68;62.93
16664;BME280;8445;51.270;9.434;2023-03-23T04:30:36;98459.41;;;10.64;63.06
16664;BME280;8445;51.270;9.434;2023-03-23T04:33:10;98454.56;;;10.59;64.37
16664;BME280;8445;51.270;9.434;2023-03-23T04:35:41;98455.69;;;10.57;62.85
16664;BME280;8445;51.270;9.434;2023-03-23T04:38:22;98454.28;;;10.52;63.07
16664;BME280;8445;51.270;9.434;2023-03-23T04:40:58;98447.72;;;10.47;63.02
16664;BME280;8445;51.270;9.434;2023-03-23T04:43:39;98452.91;;;10.48;62.96
16664;BME280;8445;51.270;9.434;2023-03-23T04:46:39;98444.53;;;10.43;63.25
16664;BME280;8445;51.270;9.434;2023-03-23T04:49:08;98441.44;;;10.38;62.91
16664;BME280;8445;51.270;9.434;2023-03-23T04:51:40;98429.47;;;10.34;63.87
16664;BME280;8445;51.270;9.434;2023-03-23T04:54:22;98427.66;;;10.34;62.95
16664;BME280;8445;51.270;9.434;2023-03-23T04:56:52;98422.78;;;10.30;63.06
16664;BME280;8445;51.270;9.434;2023-03-23T04:59:23;98417.50;;;10.30;64.17
16664;BME280;8445;51.270;9.434;2023-03-23T05:02:11;98422.50;;;10.33;63.40
16664;BME280;8445;51.270;9.434;2023-03-23T05:04:39;98419.19;;;10.31;63.57
16664;BME280;8445;51.270;9.434;2023-03-23T05:07:27;98421.13;;;10.29;63.16
16664;BME280;8445;51.270;9.434;2023-03-23T05:09:53;98416.81;;;10.28;63.89
16664;BME280;8445;51.270;9.434;2023-03-23T05:12:30;98398.59;;;10.24;63.78
16664;BME280;8445;51.270;9.434;2023-03-23T05:15:04;98407.75;;;10.20;64.28
16664;BME280;8445;51.270;9.434;2023-03-23T05:17:38;98415.00;;;10.18;63.80
16664;BME280;8445;51.270;9.434;2023-03-23T05:20:16;98412.63;;;10.15;64.31
16664;BME280;8445;51.270;9.434;2023-03-23T05:22:51;98410.25;;;10.12;63.50
16664;BME280;8445;51.270;9.434;2023-03-23T05:25:24;98405.50;;;10.06;64.45
16664;BME280;8445;51.270;9.434;2023-03-23T05:27:57;98407.47;;;10.04;63.81
16664;BME280;8445;51.270;9.434;2023-03-23T05:30:39;98421.94;;;10.00;64.08
16664;BME280;8445;51.270;9.434;2023-03-23T05:33:06;98417.75;;;9.97;64.50
16664;BME280;8445;51.270;9.434;2023-03-23T05:35:46;98431.13;;;9.96;64.70
16664;BME280;8445;51.270;9.434;2023-03-23T05:38:16;98426.09;;;9.92;65.14
16664;BME280;8445;51.270;9.434;2023-03-23T05:40:50;98424.97;;;9.95;65.82
16664;BME280;8445;51.270;9.434;2023-03-23T05:43:23;98424.16;;;9.94;64.55
16664;BME280;8445;51.270;9.434;2023-03-23T05:46:10;98422.75;;;9.90;65.55
16664;BME280;8445;51.270;9.434;2023-03-23T05:48:37;98422.50;;;9.93;65.32
16664;BME280;8445;51.270;9.434;2023-03-23T05:51:07;98425.81;;;9.96;65.63
16664;BME280;8445;51.270;9.434;2023-03-23T05:53:37;98438.06;;;9.97;65.54
16664;BME280;8445;51.270;9.434;2023-03-23T05:56:09;98439.47;;;10.01;65.59
16664;BME280;8445;51.270;9.434;2023-03-23T05:59:08;98440.13;;;10.03;65.28
16664;BME280;8445;51.270;9.434;2023-03-23T06:01:39;98438.19;;;10.05;66.49
16664;BME280;8445;51.270;9.434;2023-03-23T06:04:21;98428.63;;;10.14;65.36
16664;BME280;8445;51.270;9.434;2023-03-23T06:07:28;98433.22;;;10.21;70.01
16664;BME280;8445;51.270;9.434;2023-03-23T06:09:59;98422.09;;;10.18;66.72
16664;BME280;8445;51.270;9.434;2023-03-23T06:12:49;98417.25;;;10.23;66.28
16664;BME280;8445;51.270;9.434;2023-03-23T06:15:29;98423.75;;;10.29;66.02
16664;BME280;8445;51.270;9.434;2023-03-23T06:18:35;98406.38;;;10.36;67.40
16664;BME280;8445;51.270;9.434;2023-03-23T06:21:25;98392.19;;;10.37;65.91
16664;BME280;8445;51.270;9.434;2023-03-23T06:24:51;98421.38;;;10.35;68.79
16664;BME280;8445;51.270;9.434;2023-03-23T06:27:33;98437.13;;;10.37;66.54
16664;BME280;8445;51.270;9.434;2023-03-23T06:30:15;98434.94;;;10.42;66.95
16664;BME280;8445;51.270;9.434;2023-03-23T06:32:42;98437.03;;;10.48;67.22
16664;BME280;8445;51.270;9.434;2023-03-23T06:35:22;98432.00;;;10.55;67.39
16664;BME280;8445;51.270;9.434;2023-03-23T06:38:27;98446.75;;;10.77;66.77
16664;BME280;8445;51.270;9.434;2023-03-23T06:40:54;98433.31;;;10.98;67.69
16664;BME280;8445;51.270;9.434;2023-03-23T06:43:32;98434.09;;;11.29;67.69
16664;BME280;8445;51.270;9.434;2023-03-23T06:46:12;98431.91;;;11.52;68.14
16664;BME280;8445;51.270;9.434;2023-03-23T06:49:01;98431.44;;;11.66;66.81
16664;BME280;8445;51.270;9.434;2023-03-23T06:51:40;98436.16;;;11.73;67.31
16664;BME280;8445;51.270;9.434;2023-03-23T06:54:06;98432.59;;;11.82;67.67
16664;BME280;8445;51.270;9.434;2023-03-23T06:56:37;98436.41;;;11.97;67.93
16664;BME280;8445;51.270;9.434;2023-03-23T06:59:03;98427.44;;;12.08;67.47
16664;BME280;8445;51.270;9.434;2023-03-23T07:01:37;98421.69;;;12.13;66.75
16664;BME280;8445;51.270;9.434;2023-03-23T07:04:04;98426.69;;;12.16;67.23
16664;BME280;8445;51.270;9.434;2023-03-23T07:06:42;98434.06;;;12.22;67.13
16664;BME280;8445;51.270;9.434;2023-03-23T07:09:08;98433.59;;;12.27;67.26
16664;BME280;8445;51.270;9.434;2023-03-23T07:11:36;98448.69;;;12.26;67.09
16664;BME280;8445;51.270;9.434;2023-03-23T07:14:19;98445.94;;;12.18;66.55
16664;BME280;8445;51.270;9.434;2023-03-23T07:16:47;98449.63;;;12.07;66.74
16664;BME280;8445;51.270;9.434;2023-03-23T07:19:13;98446.16;;;12.07;66.69
16664;BME280;8445;51.270;9.434;2023-03-23T07:21:41;98449.56;;;12.17;67.11
16664;BME280;8445;51.270;9.434;2023-03-23T07:24:16;98447.31;;;12.22;67.05
16664;BME280;8445;51.270;9.434;2023-03-23T07:27:07;98453.72;;;12.20;66.97
16664;BME280;8445;51.270;9.434;2023-03-23T07:29:34;98453.91;;;12.18;66.50
16664;BME280;8445;51.270;9.434;2023-03-23T07:32:11;98452.06;;;12.19;66.95
16664;BME280;8445;51.270;9.434;2023-03-23T07:34:37;98460.69;;;12.21;66.93
16664;BME280;8445;51.270;9.434;2023-03-23T07:37:20;98455.56;;;12.37;67.20
16664;BME280;8445;51.270;9.434;2023-03-23T07:39:50;98454.88;;;12.53;67.10
16664;BME280;8445;51.270;9.434;2023-03-23T07:42:26;98455.34;;;12.67;67.14
16664;BME280;8445;51.270;9.434;2023-03-23T07:45:01;98455.56;;;13.00;67.72
16664;BME280;8445;51.270;9.434;2023-03-23T07:47:34;98452.47;;;13.31;67.73
16664;BME280;8445;51.270;9.434;2023-03-23T07:50:07;98452.16;;;13.60;67.76
16664;BME280;8445;51.270;9.434;2023-03-23T07:52:37;98459.34;;;13.76;67.41
16664;BME280;8445;51.270;9.434;2023-03-23T07:55:09;98464.88;;;13.83;67.13
16664;BME280;8445;51.270;9.434;2023-03-23T07:57:51;98452.75;;;13.89;66.78
16664;BME280;8445;51.270;9.434;2023-03-23T08:00:19;98453.16;;;14.11;66.72
16664;BME280;8445;51.270;9.434;2023-03-23T08:02:47;98457.88;;;14.42;66.96
16664;BME280;8445;51.270;9.434;2023-03-23T08:05:24;98459.06;;;14.64;67.05
16664;BME280;8445;51.270;9.434;2023-03-23T08:08:26;98461.56;;;14.74;66.10
16664;BME280;8445;51.270;9.434;2023-03-23T08:11:15;98470.88;;;14.61;66.16
16664;BME280;8445;51.270;9.434;2023-03-23T08:13:57;98476.53;;;14.75;65.92
16664;BME280;8445;51.270;9.434;2023-03-23T08:17:15;98476.56;;;14.91;65.47
16664;BME280;8445;51.270;9.434;2023-03-23T08:20:14;98465.09;;;14.91;65.62
16664;BME280;8445;51.270;9.434;2023-03-23T08:22:59;98466.09;;;14.98;65.26
16664;BME280;8445;51.270;9.434;2023-03-23T08:25:54;98477.56;;;14.99;65.21
16664;BME280;8445;51.270;9.434;2023-03-23T08:28:40;98478.22;;;15.01;65.18
16664;BME280;8445;51.270;9.434;2023-03-23T08:31:44;98476.03;;;15.12;65.39
16664;BME280;8445;51.270;9.434;2023-03-23T08:34:26;98476.69;;;15.15;65.43
16664;BME280;8445;51.270;9.434;2023-03-23T08:37:09;98482.81;;;15.40;65.90
16664;BME280;8445;51.270;9.434;2023-03-23T08:39:57;98485.75;;;15.70;65.71
16664;BME280;8445;51.270;9.434;2023-03-23T08:42:44;98488.34;;;15.95;64.83
16664;BME280;8445;51.270;9.434;2023-03-23T08:45:14;98489.63;;;16.07;64.68
16664;BME280;8445;51.270;9.434;2023-03-23T08:48:09;98502.66;;;15.94;64.31
16664;BME280;8445;51.270;9.434;2023-03-23T08:50:59;98499.53;;;15.82;64.38
16664;BME280;8445;51.270;9.434;2023-03-23T08:53:41;98497.72;;;15.74;64.49
16664;BME280;8445;51.270;9.434;2023-03-23T08:56:16;98499.75;;;15.72;64.56
16664;BME280;8445;51.270;9.434;2023-03-23T08:59:07;98494.59;;;15.62;64.40
16664;BME280;8445;51.270;9.434;2023-03-23T09:01:39;98494.06;;;15.75;64.72
16664;BME280;8445;51.270;9.434;2023-03-23T09:04:19;98484.81;;;16.03;65.01
16664;BME280;8445;51.270;9.434;2023-03-23T09:07:03;98487.97;;;15.98;64.08
16664;BME280;8445;51.270;9.434;2023-03-23T09:09:28;98485.72;;;15.87;63.95
16664;BME280;8445;51.270;9.434;2023-03-23T09:11:54;98483.22;;;15.77;64.11
16664;BME280;8445;51.270;9.434;2023-03-23T09:14:20;98485.75;;;15.70;64.38
16664;BME280;8445;51.270;9.434;2023-03-23T09:16:45;98478.88;;;15.76;64.30
16664;BME280;8445;51.270;9.434;2023-03-23T09:19:11;98470.06;;;15.75;64.39
16664;BME280;8445;51.270;9.434;2023-03-23T09:21:38;98476.50;;;15.97;64.44
16664;BME280;8445;51.270;9.434;2023-03-23T09:24:05;98469.91;;;16.17;64.03
16664;BME280;8445;51.270;9.434;2023-03-23T09:26:32;98475.16;;;16.33;64.14
16664;BME280;8445;51.270;9.434;2023-03-23T09:29:01;98478.22;;;16.45;63.96
16664;BME280;8445;51.270;9.434;2023-03-23T09:31:26;98478.28;;;16.60;63.55
16664;BME280;8445;51.270;9.434;2023-03-23T09:33:53;98480.84;;;17.00;63.60
16664;BME280;8445;51.270;9.434;2023-03-23T09:36:21;98478.19;;;17.15;62.88
16664;BME280;8445;51.270;9.434;2023-03-23T09:38:49;98472.78;;;17.23;62.19
16664;BME280;8445;51.270;9.434;2023-03-23T09:46:54;98490.59;;;17.46;62.08
16664;BME280;8445;51.270;9.434;2023-03-23T09:49:29;98490.78;;;17.44;62.11
16664;BME280;8445;51.270;9.434;2023-03-23T09:55:32;98490.31;;;17.26;62.27
16664;BME280;8445;51.270;9.434;2023-03-23T09:58:26;98480.44;;;17.26;60.37
16664;BME280;8445;51.270;9.434;2023-03-23T10:01:31;98478.78;;;17.25;61.20
16664;BME280;8445;51.270;9.434;2023-03-23T10:04:50;98480.72;;;17.31;62.11
16664;BME280;8445;51.270;9.434;2023-03-23T10:07:55;98489.03;;;17.37;57.64
16664;BME280;8445;51.270;9.434;2023-03-23T10:16:27;98487.66;;;17.41;61.13
16664;BME280;8445;51.270;9.434;2023-03-23T10:19:11;98487.56;;;17.49;61.02
16664;BME280;8445;51.270;9.434;2023-03-23T10:22:01;98483.44;;;17.61;60.01
16664;BME280;8445;51.270;9.434;2023-03-23T10:32:44;98506.00;;;17.29;57.69
16664;BME280;8445;51.270;9.434;2023-03-23T10:50:23;98513.31;;;16.65;56.20
16664;BME280;8445;51.270;9.434;2023-03-23T10:56:51;98522.16;;;16.89;56.77
16664;BME280;8445;51.270;9.434;2023-03-23T11:14:14;98519.53;;;18.69;57.64
16664;BME280;8445;51.270;9.434;2023-03-23T11:17:19;98520.47;;;18.83;56.54
16664;BME280;8445;51.270;9.434;2023-03-23T11:20:29;98519.91;;;19.09;57.00
16664;BME280;8445;51.270;9.434;2023-03-23T11:27:15;98513.59;;;18.74;56.46
16664;BME280;8445;51.270;9.434;2023-03-23T11:29:29;98512.84;;;18.43;56.27
16664;BME280;8445;51.270;9.434;2023-03-23T11:34:42;98525.22;;;18.22;55.85
16664;BME280;8445;51.270;9.434;2023-03-23T11:37:40;98535.91;;;18.07;56.53
16664;BME280;8445;51.270;9.434;2023-03-23T11:40:30;98525.28;;;17.84;54.34
16664;BME280;8445;51.270;9.434;2023-03-23T11:43:23;98521.78;;;17.69;56.50
16664;BME280;8445;51.270;9.434;2023-03-23T11:56:06;98537.44;;;18.32;53.50
16664;BME280;8445;51.270;9.434;2023-03-23T11:59:01;98544.13;;;18.06;53.26
16664;BME280;8445;51.270;9.434;2023-03-23T12:02:12;98539.69;;;17.83;55.21
16664;BME280;8445;51.270;9.434;2023-03-23T12:05:20;98534.59;;;17.58;54.10
16664;BME280;8445;51.270;9.434;2023-03-23T12:08:22;98543.72;;;17.49;53.46
16664;BME280;8445;51.270;9.434;2023-03-23T12:17:39;98533.09;;;17.02;54.51
16664;BME280;8445;51.270;9.434;2023-03-23T12:20:24;98536.50;;;16.96;55.27
16664;BME280;8445;51.270;9.434;2023-03-23T12:28:19;98520.00;;;16.84;55.23
16664;BME280;8445;51.270;9.434;2023-03-23T12:36:04;98518.66;;;17.65;56.48
16664;BME280;8445;51.270;9.434;2023-03-23T12:38:59;98505.81;;;17.90;55.42
16664;BME280;8445;51.270;9.434;2023-03-23T12:41:37;98499.97;;;18.32;52.92
16664;BME280;8445;51.270;9.434;2023-03-23T12:47:40;98512.78;;;19.17;55.75
16664;BME280;8445;51.270;9.434;2023-03-23T12:50:31;98506.91;;;19.06;54.44
16664;BME280;8445;51.270;9.434;2023-03-23T12:53:32;98507.09;;;18.83;53.48
16664;BME280;8445;51.270;9.434;2023-03-23T12:59:26;98514.78;;;18.49;53.57
16664;BME280;8445;51.270;9.434;2023-03-23T13:02:14;98512.38;;;18.55;54.91
16664;BME280;8445;51.270;9.434;2023-03-23T13:05:27;98499.19;;;18.53;53.63
16664;BME280;8445;51.270;9.434;2023-03-23T13:07:56;98491.63;;;18.63;53.98
16664;BME280;8445;51.270;9.434;2023-03-23T13:10:32;98499.13;;;18.68;55.41
16664;BME280;8445;51.270;9.434;2023-03-23T13:13:00;98508.22;;;18.74;55.66
16664;BME280;8445;51.270;9.434;2023-03-23T13:15:49;98505.72;;;18.50;51.73
16664;BME280;8445;51.270;9.434;2023-03-23T13:21:18;98499.91;;;18.25;52.60
16664;BME280;8445;51.270;9.434;2023-03-23T13:23:54;98487.56;;;17.79;52.18
16664;BME280;8445;51.270;9.434;2023-03-23T13:26:28;98494.28;;;17.45;54.07
16664;BME280;8445;51.270;9.434;2023-03-23T13:29:16;98498.91;;;17.51;54.60
16664;BME280;8445;51.270;9.434;2023-03-23T13:31:51;98489.50;;;17.55;54.60
16664;BME280;8445;51.270;9.434;2023-03-23T13:34:51;98489.69;;;17.69;55.22
16664;BME280;8445;51.270;9.434;2023-03-23T13:37:32;98483.13;;;18.01;54.91
16664;BME280;8445;51.270;9.434;2023-03-23T13:40:26;98492.44;;;18.20;54.53
16664;BME280;8445;51.270;9.434;2023-03-23T13:43:02;98476.13;;;18.37;53.25
16664;BME280;8445;51.270;9.434;2023-03-23T13:45:52;98488.13;;;18.41;53.05
16664;BME280;8445;51.270;9.434;2023-03-23T13:48:27;98478.91;;;18.44;54.16
16664;BME280;8445;51.270;9.434;2023-03-23T13:51:00;98480.75;;;18.65;53.58
16664;BME280;8445;51.270;9.434;2023-03-23T13:53:31;98481.13;;;18.62;53.67
16664;BME280;8445;51.270;9.434;2023-03-23T13:56:40;98479.94;;;18.28;51.55
16664;BME280;8445;51.270;9.434;2023-03-23T13:59:45;98492.50;;;17.97;52.74
16664;BME280;8445;51.270;9.434;2023-03-23T14:02:38;98504.16;;;17.89;52.96
16664;BME280;8445;51.270;9.434;2023-03-23T14:05:28;98502.41;;;17.82;52.16
16664;BME280;8445;51.270;9.434;2023-03-23T14:08:05;98505.28;;;17.65;52.73
16664;BME280;8445;51.270;9.434;2023-03-23T14:10:42;98487.72;;;17.32;52.47
16664;BME280;8445;51.270;9.434;2023-03-23T14:16:12;98497.72;;;17.00;53.05
16664;BME280;8445;51.270;9.434;2023-03-23T14:18:40;98493.66;;;16.81;53.29
16664;BME280;8445;51.270;9.434;2023-03-23T14:21:38;98493.34;;;16.53;52.64
16664;BME280;8445;51.270;9.434;2023-03-23T14:24:15;98496.88;;;16.53;53.25
16664;BME280;8445;51.270;9.434;2023-03-23T14:26:49;98494.97;;;16.62;53.49
16664;BME280;8445;51.270;9.434;2023-03-23T14:29:19;98485.84;;;16.80;53.71
16664;BME280;8445;51.270;9.434;2023-03-23T14:32:07;98484.81;;;17.04;53.70
16664;BME280;8445;51.270;9.434;2023-03-23T14:34:35;98483.41;;;17.31;53.83
16664;BME280;8445;51.270;9.434;2023-03-23T14:37:02;98487.94;;;17.46;53.71
16664;BME280;8445;51.270;9.434;2023-03-23T14:39:30;98462.22;;;17.60;53.50
16664;BME280;8445;51.270;9.434;2023-03-23T14:42:04;98479.06;;;17.45;52.68
16664;BME280;8445;51.270;9.434;2023-03-23T14:44:37;98464.88;;;17.45;53.34
16664;BME280;8445;51.270;9.434;2023-03-23T14:47:33;98474.94;;;17.43;52.60
16664;BME280;8445;51.270;9.434;2023-03-23T14:50:48;98479.72;;;17.32;52.61
16664;BME280;8445;51.270;9.434;2023-03-23T14:53:25;98492.41;;;17.15;52.44
16664;BME280;8445;51.270;9.434;2023-03-23T14:56:14;98483.19;;;16.95;52.92
16664;BME280;8445;51.270;9.434;2023-03-23T14:59:04;98482.50;;;16.78;53.08
16664;BME280;8445;51.270;9.434;2023-03-23T15:01:36;98478.59;;;16.65;53.16
16664;BME280;8445;51.270;9.434;2023-03-23T15:04:22;98488.25;;;16.66;53.01
16664;BME280;8445;51.270;9.434;2023-03-23T15:06:56;98480.75;;;16.47;53.01
16664;BME280;8445;51.270;9.434;2023-03-23T15:09:24;98471.16;;;16.29;53.02
16664;BME280;8445;51.270;9.434;2023-03-23T15:11:58;98475.22;;;16.17;52.87
16664;BME280;8445;51.270;9.434;2023-03-23T15:14:57;98480.09;;;16.13;53.21
16664;BME280;8445;51.270;9.434;2023-03-23T15:17:38;98485.25;;;16.14;53.36
16664;BME280;8445;51.270;9.434;2023-03-23T15:23:13;98494.22;;;16.22;53.59
16664;BME280;8445;51.270;9.434;2023-03-23T15:25:47;98499.50;;;16.30;53.55
16664;BME280;8445;51.270;9.434;2023-03-23T15:28:30;98506.16;;;16.34;53.38
16664;BME280;8445;51.270;9.434;2023-03-23T15:31:14;98481.44;;;16.40;53.22
16664;BME280;8445;51.270;9.434;2023-03-23T15:34:13;98486.78;;;16.40;53.49
16664;BME280;8445;51.270;9.434;2023-03-23T15:37:04;98486.63;;;16.34;53.20
16664;BME280;8445;51.270;9.434;2023-03-23T15:39:46;98501.88;;;16.25;53.02
16664;BME280;8445;51.270;9.434;2023-03-23T15:42:47;98510.59;;;16.10;52.75
16664;BME280;8445;51.270;9.434;2023-03-23T15:45:29;98499.50;;;15.98;52.94
16664;BME280;8445;51.270;9.434;2023-03-23T15:48:18;98506.66;;;15.98;52.95
16664;BME280;8445;51.270;9.434;2023-03-23T15:50:51;98495.66;;;15.93;52.91
16664;BME280;8445;51.270;9.434;2023-03-23T15:53:32;98495.38;;;15.88;53.01
16664;BME280;8445;51.270;9.434;2023-03-23T15:56:14;98501.41;;;15.73;52.69
16664;BME280;8445;51.270;9.434;2023-03-23T15:58:57;98498.09;;;15.63;52.93
16664;BME280;8445;51.270;9.434;2023-03-23T16:02:15;98495.91;;;15.66;53.37
16664;BME280;8445;51.270;9.434;2023-03-23T16:04:56;98483.91;;;15.62;53.46
16664;BME280;8445;51.270;9.434;2023-03-23T16:07:35;98480.41;;;15.70;53.38
16664;BME280;8445;51.270;9.434;2023-03-23T16:10:06;98485.72;;;15.78;53.32
16664;BME280;8445;51.270;9.434;2023-03-23T16:12:42;98464.38;;;15.87;53.33
16664;BME280;8445;51.270;9.434;2023-03-23T16:15:41;98474.72;;;15.90;53.63
16664;BME280;8445;51.270;9.434;2023-03-23T16:18:18;98475.19;;;15.85;53.50
16664;BME280;8445;51.270;9.434;2023-03-23T16:20:53;98472.38;;;15.78;53.23
16664;BME280;8445;51.270;9.434;2023-03-23T16:23:56;98466.56;;;15.75;53.23
16664;BME280;8445;51.270;9.434;2023-03-23T16:26:23;98455.88;;;15.75;53.49
16664;BME280;8445;51.270;9.434;2023-03-23T16:29:27;98457.41;;;15.69;53.49
16664;BME280;8445;51.270;9.434;2023-03-23T16:32:03;98455.78;;;15.60;53.56
16664;BME280;8445;51.270;9.434;2023-03-23T16:34:49;98455.16;;;15.49;53.59
16664;BME280;8445;51.270;9.434;2023-03-23T16:37:31;98460.50;;;15.33;53.65
16664;BME280;8445;51.270;9.434;2023-03-23T16:40:01;98464.56;;;15.20;53.59
16664;BME280;8445;51.270;9.434;2023-03-23T16:42:41;98464.91;;;15.01;54.77
16664;BME280;8445;51.270;9.434;2023-03-23T16:45:22;98463.75;;;14.87;53.95